sensor_id;sensor_type;location;lat;lon;timestamp;pressure;altitude;pressure_sealevel;temperature;humidity
21838;BME280;11081;45.946;6.140;2024-01-15T00:02:23;94376.84;;;3.02;100.00
21838;BME280;11081;45.946;6.140;2024-01-15T00:04:51;94369.91;;;3.03;100.00
21838;BME280;11081;45.946;6.140;2024-01-15T00:07:20;94379.41;;;3.09;100.00
21838;BME280;11081;45.946;6.140;2024-01-15T00:09:48;94369.91;;;3.10;100.00
21838;BME280;11081;45.946;6.140;2024-01-15T00:12:16;94374.84;;;3.04;100.00
21838;BME280;11081;45.946;6.140;2024-01-15T00:14:44;94374.19;;;2.89;100.00
21838;BME280;11081;45.946;6.140;2024-01-15T00:17:12;94376.44;;;2.58;100.00
21838;BME280;11081;45.946;6.140;2024-01-15T00:19:40;94378.13;;;2.37;100.00
21838;BME280;11081;45.946;6.140;2024-01-15T00:22:08;94382.19;;;2.25;100.00
21838;BME280;11081;45.946;6.140;2024-01-15T00:24:38;94370.91;;;2.26;100.00
21838;BME280;11081;45.946;6.140;2024-01-15T00:27:06;94369.69;;;2.22;100.00
21838;BME280;11081;45.946;6.140;2024-01-15T00:29:34;94375.44;;;2.24;100.00
21838;BME280;11081;45.946;6.140;2024-01-15T00:32:02;94382.06;;;2.33;100.00
21838;BME280;11081;45.946;6.140;2024-01-15T00:34:30;94381.09;;;2.41;100.00
21838;BME280;11081;45.946;6.140;2024-01-15T00:36:59;94373.28;;;2.56;100.00
21838;BME280;11081;45.946;6.140;2024-01-15T00:39:26;94380.50;;;2.73;100.00
21838;BME280;11081;45.946;6.140;2024-01-15T00:41:56;94375.38;;;2.80;100.00
21838;BME280;11081;45.946;6.140;2024-01-15T00:44:24;94361.09;;;2.84;100.00
21838;BME280;11081;45.946;6.140;2024-01-15T00:46:52;94361.31;;;2.89;100.00
21838;BME280;11081;45.946;6.140;2024-01-15T00:49:19;94360.97;;;2.99;100.00
21838;BME280;11081;45.946;6.140;2024-01-15T00:51:48;94369.28;;;3.01;100.00
21838;BME280;11081;45.946;6.140;2024-01-15T00:54:16;94358.38;;;2.92;100.00
21838;BME280;11081;45.946;6.140;2024-01-15T00:56:44;94361.56;;;2.94;100.00
21838;BME280;11081;45.946;6.140;2024-01-15T00:59:13;94360.78;;;3.00;100.00
21838;BME280;11081;45.946;6.140;2024-01-15T01:01:42;94361.75;;;2.99;100.00
21838;BME280;11081;45.946;6.140;2024-01-15T01:04:12;94372.25;;;2.98;100.00
21838;BME280;11081;45.946;6.140;2024-01-15T01:06:40;94381.78;;;2.97;100.00
21838;BME280;11081;45.946;6.140;2024-01-15T01:09:08;94380.56;;;2.93;100.00
21838;BME280;11081;45.946;6.140;2024-01-15T01:11:36;94385.38;;;2.62;100.00
21838;BME280;11081;45.946;6.140;2024-01-15T01:14:05;94389.13;;;2.59;100.00
21838;BME280;11081;45.946;6.140;2024-01-15T01:16:34;94386.59;;;2.31;100.00
21838;BME280;11081;45.946;6.140;2024-01-15T01:19:06;94383.28;;;2.37;100.00
21838;BME280;11081;45.946;6.140;2024-01-15T01:21:35;94392.03;;;2.50;100.00
21838;BME280;11081;45.946;6.140;2024-01-15T01:24:03;94394.84;;;2.55;100.00
21838;BME280;11081;45.946;6.140;2024-01-15T01:26:31;94400.53;;;2.43;100.00
21838;BME280;11081;45.946;6.140;2024-01-15T01:28:59;94402.97;;;2.52;100.00
21838;BME280;11081;45.946;6.140;2024-01-15T01:31:27;94407.72;;;2.55;100.00
21838;BME280;11081;45.946;6.140;2024-01-15T01:33:56;94412.53;;;2.64;100.00
21838;BME280;11081;45.946;6.140;2024-01-15T01:36:24;94417.94;;;2.76;100.00
21838;BME280;11081;45.946;6.140;2024-01-15T01:38:52;94421.16;;;2.85;100.00
21838;BME280;11081;45.946;6.140;2024-01-15T01:41:20;94418.97;;;2.88;100.00
21838;BME280;11081;45.946;6.140;2024-01-15T01:43:50;94420.56;;;2.89;100.00
21838;BME280;11081;45.946;6.140;2024-01-15T01:46:18;94420.56;;;2.89;100.00
21838;BME280;11081;45.946;6.140;2024-01-15T01:48:47;94418.59;;;2.91;100.00
21838;BME280;11081;45.946;6.140;2024-01-15T01:51:16;94413.84;;;2.88;100.00
21838;BME280;11081;45.946;6.140;2024-01-15T01:53:45;94410.72;;;2.99;100.00
21838;BME280;11081;45.946;6.140;2024-01-15T01:56:13;94404.78;;;3.05;100.00
21838;BME280;11081;45.946;6.140;2024-01-15T01:58:42;94400.81;;;3.03;100.00
21838;BME280;11081;45.946;6.140;2024-01-15T02:01:12;94403.59;;;3.01;100.00
21838;BME280;11081;45.946;6.140;2024-01-15T02:03:40;94406.38;;;3.06;100.00
21838;BME280;11081;45.946;6.140;2024-01-15T02:06:08;94419.44;;;2.98;100.00
21838;BME280;11081;45.946;6.140;2024-01-15T02:08:38;94414.81;;;2.87;100.00
21838;BME280;11081;45.946;6.140;2024-01-15T02:11:07;94409.84;;;2.86;100.00
21838;BME280;11081;45.946;6.140;2024-01-15T02:13:34;94397.16;;;2.84;100.00
21838;BME280;11081;45.946;6.140;2024-01-15T02:16:03;94388.44;;;2.85;100.00
21838;BME280;11081;45.946;6.140;2024-01-15T02:18:40;94377.00;;;2.94;100.00
21838;BME280;11081;45.946;6.140;2024-01-15T02:21:08;94377.00;;;2.94;100.00
21838;BME280;11081;45.946;6.140;2024-01-15T02:23:39;94390.44;;;2.90;100.00
21838;BME280;11081;45.946;6.140;2024-01-15T02:26:07;94392.03;;;2.91;100.00
21838;BME280;11081;45.946;6.140;2024-01-15T02:28:36;94386.09;;;2.90;100.00
21838;BME280;11081;45.946;6.140;2024-01-15T02:31:03;94380.56;;;2.93;100.00
21838;BME280;11081;45.946;6.140;2024-01-15T02:33:31;94382.16;;;2.94;100.00
21838;BME280;11081;45.946;6.140;2024-01-15T02:36:00;94386.94;;;2.97;100.00
21838;BME280;11081;45.946;6.140;2024-01-15T02:38:28;94382.16;;;2.94;100.00
21838;BME280;11081;45.946;6.140;2024-01-15T02:40:57;94377.38;;;2.91;100.00
21838;BME280;11081;45.946;6.140;2024-01-15T02:43:25;94371.81;;;2.88;100.00
21838;BME280;11081;45.946;6.140;2024-01-15T02:45:53;94368.84;;;2.84;100.00
21838;BME280;11081;45.946;6.140;2024-01-15T02:48:20;94366.25;;;2.84;100.00
21838;BME280;11081;45.946;6.140;2024-01-15T02:50:49;94362.88;;;2.84;100.00
21838;BME280;11081;45.946;6.140;2024-01-15T02:53:17;94378.16;;;2.85;100.00
21838;BME280;11081;45.946;6.140;2024-01-15T02:55:44;94381.56;;;2.92;100.00
21838;BME280;11081;45.946;6.140;2024-01-15T02:58:14;94373.44;;;2.95;100.00
21838;BME280;11081;45.946;6.140;2024-01-15T03:00:42;94369.50;;;2.99;100.00
21838;BME280;11081;45.946;6.140;2024-01-15T03:03:10;94376.22;;;3.00;100.00
21838;BME280;11081;45.946;6.140;2024-01-15T03:05:38;94374.44;;;3.01;100.00
21838;BME280;11081;45.946;6.140;2024-01-15T03:08:07;94381.38;;;3.00;100.00
21838;BME280;11081;45.946;6.140;2024-01-15T03:10:34;94372.66;;;3.01;100.00
21838;BME280;11081;45.946;6.140;2024-01-15T03:13:03;94379.03;;;3.05;100.00
21838;BME280;11081;45.946;6.140;2024-01-15T03:15:32;94381.00;;;3.10;100.00
21838;BME280;11081;45.946;6.140;2024-01-15T03:18:00;94371.28;;;3.05;100.00
21838;BME280;11081;45.946;6.140;2024-01-15T03:20:28;94371.88;;;3.08;100.00
21838;BME280;11081;45.946;6.140;2024-01-15T03:22:56;94346.56;;;3.18;100.00
21838;BME280;11081;45.946;6.140;2024-01-15T03:25:24;94338.22;;;3.16;100.00
21838;BME280;11081;45.946;6.140;2024-01-15T03:27:52;94342.94;;;3.12;100.00
21838;BME280;11081;45.946;6.140;2024-01-15T03:30:20;94350.50;;;3.14;100.00
21838;BME280;11081;45.946;6.140;2024-01-15T03:32:49;94354.44;;;3.10;100.00
21838;BME280;11081;45.946;6.140;2024-01-15T03:35:17;94342.94;;;3.05;100.00
21838;BME280;11081;45.946;6.140;2024-01-15T03:37:45;94346.72;;;3.10;100.00
21838;BME280;11081;45.946;6.140;2024-01-15T03:40:13;94354.44;;;3.03;100.00
21838;BME280;11081;45.946;6.140;2024-01-15T03:42:45;94356.75;;;2.91;100.00
21838;BME280;11081;45.946;6.140;2024-01-15T03:45:13;94349.22;;;2.83;100.00
21838;BME280;11081;45.946;6.140;2024-01-15T03:47:41;94346.44;;;2.78;100.00
21838;BME280;11081;45.946;6.140;2024-01-15T03:50:11;94342.06;;;2.85;100.00
21838;BME280;11081;45.946;6.140;2024-01-15T03:52:39;94345.25;;;2.87;100.00
21838;BME280;11081;45.946;6.140;2024-01-15T03:55:07;94346.09;;;2.94;100.00
21838;BME280;11081;45.946;6.140;2024-01-15T03:57:35;94341.75;;;3.01;100.00
21838;BME280;11081;45.946;6.140;2024-01-15T04:00:05;94347.28;;;3.05;100.00
21838;BME280;11081;45.946;6.140;2024-01-15T04:02:33;94340.56;;;3.11;100.00
21838;BME280;11081;45.946;6.140;2024-01-15T04:05:01;94338.63;;;3.13;100.00
21838;BME280;11081;45.946;6.140;2024-01-15T04:07:30;94330.69;;;3.14;100.00
21838;BME280;11081;45.946;6.140;2024-01-15T04:09:58;94327.13;;;3.15;100.00
21838;BME280;11081;45.946;6.140;2024-01-15T04:12:26;94331.69;;;3.20;100.00
21838;BME280;11081;45.946;6.140;2024-01-15T04:14:54;94322.75;;;3.16;100.00
21838;BME280;11081;45.946;6.140;2024-01-15T04:17:22;94319.19;;;3.17;100.00
21838;BME280;11081;45.946;6.140;2024-01-15T04:19:50;94318.41;;;3.23;100.00
21838;BME280;11081;45.946;6.140;2024-01-15T04:22:18;94315.63;;;3.31;100.00
21838;BME280;11081;45.946;6.140;2024-01-15T04:24:48;94330.69;;;3.21;100.00
21838;BME280;11081;45.946;6.140;2024-01-15T04:27:16;94330.28;;;3.17;100.00
21838;BME280;11081;45.946;6.140;2024-01-15T04:29:44;94331.47;;;3.15;100.00
21838;BME280;11081;45.946;6.140;2024-01-15T04:32:12;94332.28;;;3.15;100.00
21838;BME280;11081;45.946;6.140;2024-01-15T04:34:40;94320.19;;;3.16;100.00
21838;BME280;11081;45.946;6.140;2024-01-15T04:37:08;94317.59;;;3.16;100.00
21838;BME280;11081;45.946;6.140;2024-01-15T04:39:36;94325.94;;;3.18;100.00
21838;BME280;11081;45.946;6.140;2024-01-15T04:42:05;94333.66;;;3.18;100.00
21838;BME280;11081;45.946;6.140;2024-01-15T04:44:33;94334.66;;;3.17;100.00
21838;BME280;11081;45.946;6.140;2024-01-15T04:47:01;94333.06;;;3.16;100.00
21838;BME280;11081;45.946;6.140;2024-01-15T04:49:29;94327.91;;;3.16;100.00
21838;BME280;11081;45.946;6.140;2024-01-15T04:51:58;94325.94;;;3.18;100.00
21838;BME280;11081;45.946;6.140;2024-01-15T04:54:26;94310.25;;;3.19;100.00
21838;BME280;11081;45.946;6.140;2024-01-15T04:56:54;94303.31;;;3.13;100.00
21838;BME280;11081;45.946;6.140;2024-01-15T04:59:23;94298.34;;;3.12;100.00
21838;BME280;11081;45.946;6.140;2024-01-15T05:01:51;94304.13;;;3.14;100.00
21838;BME280;11081;45.946;6.140;2024-01-15T05:04:19;94302.53;;;3.13;100.00
21838;BME280;11081;45.946;6.140;2024-01-15T05:06:47;94299.16;;;3.19;100.00
21838;BME280;11081;45.946;6.140;2024-01-15T05:09:15;94301.34;;;3.22;100.00
21838;BME280;11081;45.946;6.140;2024-01-15T05:11:44;94306.09;;;3.25;100.00
21838;BME280;11081;45.946;6.140;2024-01-15T05:14:12;94306.09;;;3.25;100.00
21838;BME280;11081;45.946;6.140;2024-01-15T05:16:46;94317.59;;;3.16;100.00
21838;BME280;11081;45.946;6.140;2024-01-15T05:19:14;94307.69;;;3.13;100.00
21838;BME280;11081;45.946;6.140;2024-01-15T05:21:43;94313.63;;;3.20;100.00
21838;BME280;11081;45.946;6.140;2024-01-15T05:24:11;94305.91;;;3.20;100.00
21838;BME280;11081;45.946;6.140;2024-01-15T05:26:39;94304.13;;;3.27;100.00
21838;BME280;11081;45.946;6.140;2024-01-15T05:29:06;94293.81;;;3.27;100.00
21838;BME280;11081;45.946;6.140;2024-01-15T05:31:35;94289.63;;;3.26;100.00
21838;BME280;11081;45.946;6.140;2024-01-15T05:34:05;94280.91;;;3.27;100.00
21838;BME280;11081;45.946;6.140;2024-01-15T05:36:33;94279.91;;;3.28;100.00
21838;BME280;11081;45.946;6.140;2024-01-15T05:39:01;94272.38;;;3.33;100.00
21838;BME280;11081;45.946;6.140;2024-01-15T05:41:29;94272.00;;;3.36;100.00
21838;BME280;11081;45.946;6.140;2024-01-15T05:43:57;94268.03;;;3.40;100.00
21838;BME280;11081;45.946;6.140;2024-01-15T05:46:25;94269.22;;;3.38;100.00
21838;BME280;11081;45.946;6.140;2024-01-15T05:48:53;94266.06;;;3.42;100.00
21838;BME280;11081;45.946;6.140;2024-01-15T05:51:22;94258.91;;;3.44;100.00
21838;BME280;11081;45.946;6.140;2024-01-15T05:53:50;94256.53;;;3.43;100.00
21838;BME280;11081;45.946;6.140;2024-01-15T05:56:18;94254.53;;;3.51;100.00
21838;BME280;11081;45.946;6.140;2024-01-15T05:58:46;94253.53;;;3.52;100.00
21838;BME280;11081;45.946;6.140;2024-01-15T06:01:14;94264.47;;;3.54;100.00
21838;BME280;11081;45.946;6.140;2024-01-15T06:03:42;94271.22;;;3.55;100.00
21838;BME280;11081;45.946;6.140;2024-01-15T06:06:10;94260.09;;;3.48;100.00
21838;BME280;11081;45.946;6.140;2024-01-15T06:08:40;94264.47;;;3.48;100.00
21838;BME280;11081;45.946;6.140;2024-01-15T06:11:08;94256.94;;;3.46;100.00
21838;BME280;11081;45.946;6.140;2024-01-15T06:13:35;94260.09;;;3.48;100.00
21838;BME280;11081;45.946;6.140;2024-01-15T06:16:13;94256.13;;;3.52;100.00
21838;BME280;11081;45.946;6.140;2024-01-15T06:18:41;94266.06;;;3.55;100.00
21838;BME280;11081;45.946;6.140;2024-01-15T06:21:09;94275.19;;;3.58;100.00
21838;BME280;11081;45.946;6.140;2024-01-15T06:23:41;94253.34;;;3.67;100.00
21838;BME280;11081;45.946;6.140;2024-01-15T06:26:09;94254.13;;;3.67;100.00
21838;BME280;11081;45.946;6.140;2024-01-15T06:28:38;94257.31;;;3.70;100.00
21838;BME280;11081;45.946;6.140;2024-01-15T06:31:06;94256.91;;;3.73;100.00
21838;BME280;11081;45.946;6.140;2024-01-15T06:33:35;94257.13;;;3.78;100.00
21838;BME280;11081;45.946;6.140;2024-01-15T06:36:04;94268.44;;;3.77;100.00
21838;BME280;11081;45.946;6.140;2024-01-15T06:38:32;94260.47;;;3.72;100.00
21838;BME280;11081;45.946;6.140;2024-01-15T06:41:01;94251.75;;;3.73;100.00
21838;BME280;11081;45.946;6.140;2024-01-15T06:43:29;94253.72;;;3.71;100.00
21838;BME280;11081;45.946;6.140;2024-01-15T06:45:57;94248.56;;;3.71;100.00
21838;BME280;11081;45.946;6.140;2024-01-15T06:48:27;94244.59;;;3.75;100.00
21838;BME280;11081;45.946;6.140;2024-01-15T06:50:55;94243.00;;;3.74;100.00
21838;BME280;11081;45.946;6.140;2024-01-15T06:53:23;94254.53;;;3.78;100.00
21838;BME280;11081;45.946;6.140;2024-01-15T06:55:51;94244.81;;;3.80;100.00
21838;BME280;11081;45.946;6.140;2024-01-15T06:58:21;94243.81;;;3.81;100.00
21838;BME280;11081;45.946;6.140;2024-01-15T07:00:49;94251.94;;;3.78;100.00
21838;BME280;11081;45.946;6.140;2024-01-15T07:03:17;94245.78;;;3.79;100.00
21838;BME280;11081;45.946;6.140;2024-01-15T07:05:45;94245.78;;;3.79;100.00
21838;BME280;11081;45.946;6.140;2024-01-15T07:08:13;94246.22;;;3.76;100.00
21838;BME280;11081;45.946;6.140;2024-01-15T07:10:41;94257.31;;;3.76;100.00
21838;BME280;11081;45.946;6.140;2024-01-15T07:13:09;94256.91;;;3.73;100.00
21838;BME280;11081;45.946;6.140;2024-01-15T07:15:38;94264.25;;;3.69;100.00
21838;BME280;11081;45.946;6.140;2024-01-15T07:18:06;94259.69;;;3.64;100.00
21838;BME280;11081;45.946;6.140;2024-01-15T07:20:36;94262.50;;;3.56;100.00
21838;BME280;11081;45.946;6.140;2024-01-15T07:23:04;94261.69;;;3.62;100.00
21838;BME280;11081;45.946;6.140;2024-01-15T07:25:33;94254.94;;;3.68;100.00
21838;BME280;11081;45.946;6.140;2024-01-15T07:28:01;94276.34;;;3.68;100.00
21838;BME280;11081;45.946;6.140;2024-01-15T07:30:30;94275.53;;;3.75;100.00
21838;BME280;11081;45.946;6.140;2024-01-15T07:32:59;94282.31;;;3.76;100.00
21838;BME280;11081;45.946;6.140;2024-01-15T07:35:27;94287.88;;;3.66;100.00
21838;BME280;11081;45.946;6.140;2024-01-15T07:37:55;94285.13;;;3.54;100.00
21838;BME280;11081;45.946;6.140;2024-01-15T07:40:24;94294.63;;;3.34;100.00
21838;BME280;11081;45.946;6.140;2024-01-15T07:42:52;94293.41;;;3.17;100.00
21838;BME280;11081;45.946;6.140;2024-01-15T07:45:20;94298.97;;;3.14;100.00
21838;BME280;11081;45.946;6.140;2024-01-15T07:47:48;94297.78;;;3.23;100.00
21838;BME280;11081;45.946;6.140;2024-01-15T07:50:18;94300.16;;;3.31;100.00
21838;BME280;11081;45.946;6.140;2024-01-15T07:52:46;94299.78;;;3.34;100.00
21838;BME280;11081;45.946;6.140;2024-01-15T07:55:15;94291.06;;;3.35;100.00
21838;BME280;11081;45.946;6.140;2024-01-15T07:57:43;94282.72;;;3.46;100.00
21838;BME280;11081;45.946;6.140;2024-01-15T08:00:21;94274.78;;;3.54;100.00
21838;BME280;11081;45.946;6.140;2024-01-15T08:02:49;94272.41;;;3.59;100.00
21838;BME280;11081;45.946;6.140;2024-01-15T08:05:19;94274.41;;;3.57;100.00
21838;BME280;11081;45.946;6.140;2024-01-15T08:07:47;94278.16;;;3.61;100.00
21838;BME280;11081;45.946;6.140;2024-01-15T08:10:15;94291.22;;;3.53;100.00
21838;BME280;11081;45.946;6.140;2024-01-15T08:12:43;94277.97;;;3.56;100.00
21838;BME280;11081;45.946;6.140;2024-01-15T08:15:11;94277.97;;;3.56;100.00
21838;BME280;11081;45.946;6.140;2024-01-15T08:17:39;94268.63;;;3.62;100.00
21838;BME280;11081;45.946;6.140;2024-01-15T08:20:07;94271.59;;;3.65;100.00
21838;BME280;11081;45.946;6.140;2024-01-15T08:22:39;94282.31;;;3.49;100.00
21838;BME280;11081;45.946;6.140;2024-01-15T08:25:08;94290.06;;;3.49;100.00
21838;BME280;11081;45.946;6.140;2024-01-15T08:27:37;94290.28;;;3.54;100.00
21838;BME280;11081;45.946;6.140;2024-01-15T08:30:06;94294.22;;;3.50;100.00
21838;BME280;11081;45.946;6.140;2024-01-15T08:32:35;94301.34;;;3.48;100.00
21838;BME280;11081;45.946;6.140;2024-01-15T08:35:07;94298.19;;;3.46;100.00
21838;BME280;11081;45.946;6.140;2024-01-15T08:37:36;94290.28;;;3.54;100.00
21838;BME280;11081;45.946;6.140;2024-01-15T08:40:06;94283.09;;;3.70;100.00
21838;BME280;11081;45.946;6.140;2024-01-15T08:42:35;94280.72;;;3.75;100.00
21838;BME280;11081;45.946;6.140;2024-01-15T08:45:03;94279.13;;;3.74;100.00
21838;BME280;11081;45.946;6.140;2024-01-15T08:47:32;94278.34;;;3.80;100.00
21838;BME280;11081;45.946;6.140;2024-01-15T08:50:00;94285.47;;;3.91;100.00
21838;BME280;11081;45.946;6.140;2024-01-15T08:52:28;94293.81;;;4.00;100.00
21838;BME280;11081;45.946;6.140;2024-01-15T08:54:56;94289.44;;;4.00;100.00
21838;BME280;11081;45.946;6.140;2024-01-15T08:57:25;94288.22;;;4.03;100.00
21838;BME280;11081;45.946;6.140;2024-01-15T08:59:53;94292.59;;;4.02;100.00
21838;BME280;11081;45.946;6.140;2024-01-15T09:02:22;94299.75;;;4.00;100.00
21838;BME280;11081;45.946;6.140;2024-01-15T09:04:49;94301.34;;;3.88;100.00
21838;BME280;11081;45.946;6.140;2024-01-15T09:07:18;94301.75;;;3.85;100.00
21838;BME280;11081;45.946;6.140;2024-01-15T09:09:46;94290.63;;;3.91;100.00
21838;BME280;11081;45.946;6.140;2024-01-15T09:12:14;94271.16;;;3.95;100.00
21838;BME280;11081;45.946;6.140;2024-01-15T09:14:46;94275.53;;;3.94;100.00
21838;BME280;11081;45.946;6.140;2024-01-15T09:17:14;94292.19;;;4.05;100.00
21838;BME280;11081;45.946;6.140;2024-01-15T09:19:42;94305.28;;;4.23;100.00
21838;BME280;11081;45.946;6.140;2024-01-15T09:22:12;94303.28;;;4.25;100.00
21838;BME280;11081;45.946;6.140;2024-01-15T09:24:41;94290.94;;;4.27;99.81
21838;BME280;11081;45.946;6.140;2024-01-15T09:27:09;94284.19;;;4.33;100.00
21838;BME280;11081;45.946;6.140;2024-01-15T09:29:37;94261.53;;;4.35;99.60
21838;BME280;11081;45.946;6.140;2024-01-15T09:32:08;94261.53;;;4.42;100.00
21838;BME280;11081;45.946;6.140;2024-01-15T09:34:36;94262.09;;;4.44;100.00
21838;BME280;11081;45.946;6.140;2024-01-15T09:37:04;94254.75;;;4.41;100.00
21838;BME280;11081;45.946;6.140;2024-01-15T09:39:32;94245.63;;;4.38;100.00
21838;BME280;11081;45.946;6.140;2024-01-15T09:42:00;94270.28;;;4.27;100.00
21838;BME280;11081;45.946;6.140;2024-01-15T09:44:29;94284.38;;;4.32;100.00
21838;BME280;11081;45.946;6.140;2024-01-15T09:46:58;94288.97;;;4.16;100.00
21838;BME280;11081;45.946;6.140;2024-01-15T09:49:28;94279.88;;;4.07;100.00
21838;BME280;11081;45.946;6.140;2024-01-15T09:51:57;94278.28;;;4.06;100.00
21838;BME280;11081;45.946;6.140;2024-01-15T09:54:37;94280.28;;;4.17;100.00
21838;BME280;11081;45.946;6.140;2024-01-15T09:57:05;94283.03;;;4.22;100.00
21838;BME280;11081;45.946;6.140;2024-01-15T09:59:35;94285.81;;;4.14;100.00
21838;BME280;11081;45.946;6.140;2024-01-15T10:02:05;94294.56;;;4.13;100.00
21838;BME280;11081;45.946;6.140;2024-01-15T10:04:35;94298.97;;;4.00;100.00
21838;BME280;11081;45.946;6.140;2024-01-15T10:07:04;94283.06;;;4.09;100.00
21838;BME280;11081;45.946;6.140;2024-01-15T10:09:33;94288.19;;;4.16;100.00
21838;BME280;11081;45.946;6.140;2024-01-15T10:12:01;94271.69;;;4.23;100.00
21838;BME280;11081;45.946;6.140;2024-01-15T10:14:29;94271.06;;;4.35;100.00
21838;BME280;11081;45.946;6.140;2024-01-15T10:16:59;94284.59;;;4.30;100.00
21838;BME280;11081;45.946;6.140;2024-01-15T10:19:27;94298.50;;;4.29;100.00
21838;BME280;11081;45.946;6.140;2024-01-15T10:21:57;94279.03;;;4.26;100.00
21838;BME280;11081;45.946;6.140;2024-01-15T10:24:25;94273.63;;;4.35;100.00
21838;BME280;11081;45.946;6.140;2024-01-15T10:27:04;94270.06;;;4.36;100.00
21838;BME280;11081;45.946;6.140;2024-01-15T10:29:33;94278.41;;;4.38;100.00
21838;BME280;11081;45.946;6.140;2024-01-15T10:32:01;94280.81;;;4.33;100.00
21838;BME280;11081;45.946;6.140;2024-01-15T10:34:30;94286.59;;;4.21;100.00
21838;BME280;11081;45.946;6.140;2024-01-15T10:37:01;94281.47;;;4.08;100.00
21838;BME280;11081;45.946;6.140;2024-01-15T10:39:29;94258.00;;;4.16;100.00
21838;BME280;11081;45.946;6.140;2024-01-15T10:41:58;94246.47;;;4.25;100.00
21838;BME280;11081;45.946;6.140;2024-01-15T10:44:25;94237.13;;;4.24;100.00
21838;BME280;11081;45.946;6.140;2024-01-15T10:46:55;94244.47;;;4.27;99.45
21838;BME280;11081;45.946;6.140;2024-01-15T10:49:23;94259.97;;;4.27;100.00
21838;BME280;11081;45.946;6.140;2024-01-15T10:52:00;94269.53;;;4.20;100.00
21838;BME280;11081;45.946;6.140;2024-01-15T10:54:29;94271.13;;;4.21;100.00
21838;BME280;11081;45.946;6.140;2024-01-15T10:56:57;94275.47;;;4.14;100.00
21838;BME280;11081;45.946;6.140;2024-01-15T10:59:25;94260.00;;;4.14;100.00
21838;BME280;11081;45.946;6.140;2024-01-15T11:01:53;94248.88;;;4.20;100.00
21838;BME280;11081;45.946;6.140;2024-01-15T11:04:23;94240.53;;;4.18;100.00
21838;BME280;11081;45.946;6.140;2024-01-15T11:06:55;94235.38;;;4.18;100.00
21838;BME280;11081;45.946;6.140;2024-01-15T11:09:25;94249.69;;;4.08;100.00
21838;BME280;11081;45.946;6.140;2024-01-15T11:12:06;94246.91;;;4.09;100.00
21838;BME280;11081;45.946;6.140;2024-01-15T11:14:38;94236.56;;;4.16;100.00
21838;BME280;11081;45.946;6.140;2024-01-15T11:17:06;94243.31;;;4.23;100.00
21838;BME280;11081;45.946;6.140;2024-01-15T11:19:38;94248.84;;;4.27;100.00
21838;BME280;11081;45.946;6.140;2024-01-15T11:22:08;94239.47;;;4.33;100.00
21838;BME280;11081;45.946;6.140;2024-01-15T11:24:39;94230.16;;;4.32;100.00
21838;BME280;11081;45.946;6.140;2024-01-15T11:27:07;94230.56;;;4.28;100.00
21838;BME280;11081;45.946;6.140;2024-01-15T11:29:36;94242.47;;;4.29;100.00
21838;BME280;11081;45.946;6.140;2024-01-15T11:32:06;94232.97;;;4.23;100.00
21838;BME280;11081;45.946;6.140;2024-01-15T11:34:55;94237.34;;;4.16;100.00
21838;BME280;11081;45.946;6.140;2024-01-15T11:37:26;94233.78;;;4.11;100.00
21838;BME280;11081;45.946;6.140;2024-01-15T11:40:01;94240.53;;;4.12;100.00
21838;BME280;11081;45.946;6.140;2024-01-15T11:42:30;94232.59;;;4.13;100.00
21838;BME280;11081;45.946;6.140;2024-01-15T11:44:58;94238.56;;;4.20;100.00
21838;BME280;11081;45.946;6.140;2024-01-15T11:48:03;94233.31;;;4.34;100.00
21838;BME280;11081;45.946;6.140;2024-01-15T11:50:39;94234.09;;;4.41;100.00
21838;BME280;11081;45.946;6.140;2024-01-15T11:53:16;94233.31;;;4.40;100.00
21838;BME280;11081;45.946;6.140;2024-01-15T11:55:46;94226.34;;;4.41;100.00
21838;BME280;11081;45.946;6.140;2024-01-15T11:58:15;94224.97;;;4.38;100.00
21838;BME280;11081;45.946;6.140;2024-01-15T12:00:44;94230.72;;;4.40;100.00
21838;BME280;11081;45.946;6.140;2024-01-15T12:03:12;94230.94;;;4.39;100.00
21838;BME280;11081;45.946;6.140;2024-01-15T12:05:41;94224.56;;;4.41;100.00
21838;BME280;11081;45.946;6.140;2024-01-15T12:08:09;94226.16;;;4.42;100.00
21838;BME280;11081;45.946;6.140;2024-01-15T12:10:38;94227.34;;;4.40;100.00
21838;BME280;11081;45.946;6.140;2024-01-15T12:13:11;94224.53;;;4.48;100.00
21838;BME280;11081;45.946;6.140;2024-01-15T12:15:41;94216.94;;;4.53;100.00
21838;BME280;11081;45.946;6.140;2024-01-15T12:18:11;94206.41;;;4.54;100.00
21838;BME280;11081;45.946;6.140;2024-01-15T12:20:40;94213.78;;;4.51;100.00
21838;BME280;11081;45.946;6.140;2024-01-15T12:23:09;94201.44;;;4.59;100.00
21838;BME280;11081;45.946;6.140;2024-01-15T12:25:38;94211.47;;;4.74;100.00
21838;BME280;11081;45.946;6.140;2024-01-15T12:28:06;94214.81;;;4.81;100.00
21838;BME280;11081;45.946;6.140;2024-01-15T12:30:35;94209.22;;;4.84;100.00
21838;BME280;11081;45.946;6.140;2024-01-15T12:33:05;94211.22;;;4.82;100.00
21838;BME280;11081;45.946;6.140;2024-01-15T12:35:35;94199.25;;;4.88;100.00
21838;BME280;11081;45.946;6.140;2024-01-15T12:38:04;94207.97;;;4.94;100.00
21838;BME280;11081;45.946;6.140;2024-01-15T12:40:33;94196.03;;;4.93;100.00
21838;BME280;11081;45.946;6.140;2024-01-15T12:43:04;94191.28;;;4.89;100.00
21838;BME280;11081;45.946;6.140;2024-01-15T12:45:33;94190.88;;;4.93;100.00
21838;BME280;11081;45.946;6.140;2024-01-15T12:48:04;94193.72;;;4.84;100.00
21838;BME280;11081;45.946;6.140;2024-01-15T12:50:33;94196.72;;;4.81;100.00
21838;BME280;11081;45.946;6.140;2024-01-15T12:53:02;94197.72;;;4.80;100.00
21838;BME280;11081;45.946;6.140;2024-01-15T12:55:30;94192.13;;;4.83;100.00
21838;BME280;11081;45.946;6.140;2024-01-15T12:57:58;94197.72;;;4.80;100.00
21838;BME280;11081;45.946;6.140;2024-01-15T13:00:26;94199.38;;;4.68;100.00
21838;BME280;11081;45.946;6.140;2024-01-15T13:02:54;94210.97;;;4.59;100.00
21838;BME280;11081;45.946;6.140;2024-01-15T13:05:26;94208.56;;;4.57;100.00
21838;BME280;11081;45.946;6.140;2024-01-15T13:07:55;94206.97;;;4.63;100.00
21838;BME280;11081;45.946;6.140;2024-01-15T13:10:23;94197.38;;;4.70;100.00